Terminal Aerodrome Forecast
Issued by NWS

Home | Current Version | Previous Version | Text Only | Print | Product List | Glossary On
Versions: 1 2 3 4 5 6 7 8 9 10 11 12 13 14 15 16
000
FTUS44 KLZK 131700
TAFPBF
TAF
KPBF 131727Z 1318/1418 21006KT P6SM SCT035 SCT120
     FM140100 17003KT P6SM SCT100
     FM141000 21004KT P6SM SCT012 SCT100
     FM141400 21006KT P6SM VCSH BKN035 BKN100=

USA.gov is the U.S. government's official web portal to all federal, state and local government web resources and services.